Time;durP1;ratioP1;P1;durP2;ratioP2;P2;SDS_P1;SDS_P2;PMS_P1;PMS_P2;Temp;Humidity;BMP_temperature;BMP_pressure;BME280_temperature;BME280_humidity;BME280_pressure;Samples;Min_cycle;Max_cycle;Signal;HPM_P1;HPM_P2
2022/08/23 00:01:28;;;;;;;20.45;7.47;;;;;;;;;;5009463;28;20121;-64
2022/08/23 00:03:56;;;;;;;20.35;7.70;;;;;;;;;;5009417;28;20488;-65
2022/08/23 00:06:22;;;;;;;19.60;7.93;;;;;;;;;;5025952;28;20083;-64
2022/08/23 00:08:49;;;;;;;15.85;6.80;;;;;;;;;;5026577;28;20041;-64
2022/08/23 00:11:36;;;;;;;18.15;8.18;;;;;;;;;;5019441;28;20489;-66
2022/08/23 00:14:07;;;;;;;19.10;6.88;;;;;;;;;;5011498;28;20316;-63
2022/08/23 00:16:34;;;;;;;21.00;7.28;;;;;;;;;;5014900;28;20060;-64
2022/08/23 00:19:01;;;;;;;17.23;7.35;;;;;;;;;;5009217;28;20133;-66
2022/08/23 00:21:28;;;;;;;14.40;6.75;;;;;;;;;;5024056;28;20049;-64
2022/08/23 00:23:54;;;;;;;16.15;7.25;;;;;;;;;;5012901;28;20160;-64
2022/08/23 00:26:20;;;;;;;16.95;6.90;;;;;;;;;;5019929;28;20454;-64
2022/08/23 00:28:46;;;;;;;;;;;;;;;;;;5029622;28;20108;-64
2022/08/23 00:31:12;;;;;;;17.67;7.28;;;;;;;;;;5011596;28;20007;-63
2022/08/23 00:33:38;;;;;;;;;;;;;;;;;;5007283;28;20855;-64
2022/08/23 00:36:05;;;;;;;20.17;8.20;;;;;;;;;;5019694;28;19921;-64
2022/08/23 00:38:31;;;;;;;18.77;7.65;;;;;;;;;;5028997;28;20125;-64
2022/08/23 00:41:00;;;;;;;20.25;7.93;;;;;;;;;;5016680;28;20088;-64
2022/08/23 00:49:12;;;;;;;15.68;7.20;;;;;;;;;;5008795;28;20140;-64
2022/08/23 00:51:44;;;;;;;18.25;7.88;;;;;;;;;;4995053;28;20919;-64
2022/08/23 00:54:10;;;;;;;17.63;8.40;;;;;;;;;;5002211;28;20466;-63
2022/08/23 00:56:38;;;;;;;17.75;7.63;;;;;;;;;;5008149;28;20347;-64
2022/08/23 00:59:06;;;;;;;18.85;8.63;;;;;;;;;;5015033;28;20196;-64
2022/08/23 01:01:32;;;;;;;16.40;8.48;;;;;;;;;;5018140;28;20061;-64
2022/08/23 01:03:59;;;;;;;18.65;7.93;;;;;;;;;;5008822;28;20045;-64
2022/08/23 01:06:38;;;;;;;22.63;8.60;;;;;;;;;;5007022;28;20449;-64
2022/08/23 01:09:19;;;;;;;16.15;8.50;;;;;;;;;;5009598;28;20141;-64
2022/08/23 01:11:51;;;;;;;20.02;9.00;;;;;;;;;;5004667;28;20053;-66
2022/08/23 01:14:19;;;;;;;19.90;8.57;;;;;;;;;;5022520;28;20121;-64
2022/08/23 01:16:48;;;;;;;15.25;8.27;;;;;;;;;;5008023;28;20050;-64
2022/08/23 01:19:18;;;;;;;19.70;9.25;;;;;;;;;;5022210;28;20086;-64
2022/08/23 01:21:48;;;;;;;16.85;8.80;;;;;;;;;;5024158;28;20525;-64
2022/08/23 01:24:16;;;;;;;19.67;8.68;;;;;;;;;;5013016;28;20175;-64
2022/08/23 01:26:42;;;;;;;22.67;9.45;;;;;;;;;;5008083;28;20054;-66
2022/08/23 01:29:09;;;;;;;16.90;9.10;;;;;;;;;;5012892;28;20068;-63
2022/08/23 01:31:35;;;;;;;;;;;;;;;;;;5028404;28;20050;-64
2022/08/23 01:34:05;;;;;;;21.60;8.82;;;;;;;;;;4993234;28;19921;-64
2022/08/23 01:36:32;;;;;;;17.85;8.65;;;;;;;;;;5005776;28;20058;-64
2022/08/23 01:38:58;;;;;;;20.48;8.88;;;;;;;;;;5017689;28;20132;-64
2022/08/23 01:41:25;;;;;;;20.85;9.55;;;;;;;;;;5028546;28;20044;-64
2022/08/23 01:43:51;;;;;;;19.27;9.15;;;;;;;;;;5011560;28;20053;-64
2022/08/23 01:46:17;;;;;;;;;;;;;;;;;;5006062;28;20072;-64
2022/08/23 01:48:44;;;;;;;19.67;10.40;;;;;;;;;;5010150;28;20326;-65
2022/08/23 01:51:10;;;;;;;20.40;11.50;;;;;;;;;;5025565;28;20049;-64
2022/08/23 01:53:36;;;;;;;19.08;9.85;;;;;;;;;;5011714;28;20081;-64
2022/08/23 01:56:03;;;;;;;18.60;10.75;;;;;;;;;;4994974;28;20451;-64
2022/08/23 01:58:31;;;;;;;21.52;10.30;;;;;;;;;;5015673;28;20066;-66
2022/08/23 02:00:57;;;;;;;18.50;11.15;;;;;;;;;;5028138;28;20037;-64
2022/08/23 02:03:23;;;;;;;24.35;11.18;;;;;;;;;;5024271;28;20467;-64
2022/08/23 02:05:49;;;;;;;;;;;;;;;;;;5007532;28;20086;-64
2022/08/23 02:11:06;;;;;;;20.67;10.82;;;;;;;;;;5011588;28;20504;-63
2022/08/23 02:13:32;;;;;;;22.00;10.63;;;;;;;;;;5010902;28;20477;-66
2022/08/23 02:15:59;;;;;;;17.13;10.23;;;;;;;;;;5012174;28;20049;-64
2022/08/23 02:18:25;;;;;;;;;;;;;;;;;;5011237;28;20095;-65
2022/08/23 02:20:54;;;;;;;23.27;10.85;;;;;;;;;;5009904;28;20048;-63
2022/08/23 02:23:21;;;;;;;25.83;11.45;;;;;;;;;;5024866;28;20510;-64
2022/08/23 02:25:50;;;;;;;25.02;11.77;;;;;;;;;;5016109;28;20041;-64
2022/08/23 02:28:16;;;;;;;24.45;12.25;;;;;;;;;;5020553;28;20065;-64
2022/08/23 02:30:42;;;;;;;;;;;;;;;;;;4996746;28;20085;-64
2022/08/23 02:33:08;;;;;;;24.20;11.68;;;;;;;;;;5027293;28;19921;-64
2022/08/23 02:35:34;;;;;;;23.15;13.13;;;;;;;;;;5010919;28;20133;-67
2022/08/23 02:38:08;;;;;;;25.92;13.85;;;;;;;;;;5010923;28;20050;-65
2022/08/23 02:40:34;;;;;;;26.60;14.18;;;;;;;;;;5009824;28;20073;-67
2022/08/23 02:43:01;;;;;;;24.35;13.00;;;;;;;;;;5009842;28;20151;-64
2022/08/23 02:45:27;;;;;;;24.02;13.90;;;;;;;;;;5010777;28;20115;-64
2022/08/23 02:47:56;;;;;;;25.15;13.93;;;;;;;;;;5012702;28;20929;-67
2022/08/23 02:50:23;;;;;;;24.95;15.13;;;;;;;;;;5010491;28;20393;-64
2022/08/23 02:52:49;;;;;;;26.70;15.38;;;;;;;;;;5013379;28;20133;-64
2022/08/23 02:55:15;;;;;;;;;;;;;;;;;;5030817;28;20038;-64
2022/08/23 02:57:41;;;;;;;24.05;14.48;;;;;;;;;;5010357;28;20227;-64
2022/08/23 03:00:08;;;;;;;;;;;;;;;;;;5011560;28;20053;-64
2022/08/23 03:02:35;;;;;;;24.83;13.55;;;;;;;;;;5011926;28;20230;-64
2022/08/23 03:05:01;;;;;;;24.05;13.50;;;;;;;;;;5010836;28;20049;-64
2022/08/23 03:07:27;;;;;;;;;;;;;;;;;;5010728;28;20042;-64
2022/08/23 03:09:53;;;;;;;24.77;13.85;;;;;;;;;;5010359;28;20363;-65
2022/08/23 03:12:19;;;;;;;25.95;14.50;;;;;;;;;;5011596;28;20104;-64
2022/08/23 03:14:45;;;;;;;27.20;14.70;;;;;;;;;;5009631;28;20120;-64
2022/08/23 03:17:12;;;;;;;26.98;14.50;;;;;;;;;;5009921;28;20072;-64
2022/08/23 03:19:38;;;;;;;26.75;15.50;;;;;;;;;;5009738;28;20474;-65
2022/08/23 03:22:04;;;;;;;25.70;14.75;;;;;;;;;;5010535;28;20105;-64
2022/08/23 03:24:30;;;;;;;25.00;14.65;;;;;;;;;;5010855;28;20054;-64
2022/08/23 03:26:56;;;;;;;26.70;15.48;;;;;;;;;;5018299;28;20505;-64
2022/08/23 03:29:22;;;;;;;30.92;15.45;;;;;;;;;;5030992;28;20142;-64
2022/08/23 03:31:50;;;;;;;26.30;15.30;;;;;;;;;;5008364;28;20046;-64
2022/08/23 03:34:16;;;;;;;26.23;14.27;;;;;;;;;;4991441;28;20054;-65
2022/08/23 03:36:42;;;;;;;;;;;;;;;;;;5005541;28;20125;-68
2022/08/23 03:39:08;;;;;;;24.48;14.57;;;;;;;;;;5013110;28;20009;-64
2022/08/23 03:41:34;;;;;;;26.63;14.93;;;;;;;;;;5009245;28;20457;-64
2022/08/23 03:44:00;;;;;;;24.63;15.40;;;;;;;;;;5010026;28;20117;-64
2022/08/23 03:46:26;;;;;;;26.08;15.30;;;;;;;;;;5009438;28;20046;-65
2022/08/23 03:48:54;;;;;;;30.95;14.80;;;;;;;;;;5008731;28;20053;-65
2022/08/23 03:51:21;;;;;;;23.63;14.73;;;;;;;;;;5021030;28;20244;-65
2022/08/23 03:53:48;;;;;;;27.73;16.02;;;;;;;;;;5027864;28;20370;-65
2022/08/23 03:56:40;;;;;;;29.63;16.85;;;;;;;;;;5030183;28;20481;-64
2022/08/23 03:59:10;;;;;;;27.35;16.63;;;;;;;;;;5006589;28;20069;-64
2022/08/23 04:01:36;;;;;;;34.80;17.90;;;;;;;;;;5009449;28;20125;-65
2022/08/23 04:04:03;;;;;;;29.75;17.45;;;;;;;;;;5018127;28;20492;-64
2022/08/23 04:06:31;;;;;;;29.05;17.00;;;;;;;;;;5030297;28;20148;-65
2022/08/23 04:08:57;;;;;;;28.42;17.00;;;;;;;;;;4996173;28;20140;-64
2022/08/23 04:11:24;;;;;;;29.77;17.38;;;;;;;;;;5009526;28;20121;-65
2022/08/23 04:13:50;;;;;;;25.45;17.05;;;;;;;;;;5019658;28;20114;-65
2022/08/23 04:16:17;;;;;;;25.55;16.35;;;;;;;;;;5030281;28;20064;-65
2022/08/23 04:18:44;;;;;;;27.55;16.55;;;;;;;;;;5018735;28;20480;-64
2022/08/23 04:21:13;;;;;;;27.35;17.05;;;;;;;;;;5007822;28;20442;-65
2022/08/23 04:23:39;;;;;;;23.90;15.77;;;;;;;;;;5014877;28;20115;-64
2022/08/23 04:26:05;;;;;;;;;;;;;;;;;;5026029;28;20049;-64
2022/08/23 04:28:32;;;;;;;27.45;15.70;;;;;;;;;;5023816;28;19929;-65
2022/08/23 04:30:59;;;;;;;26.45;14.95;;;;;;;;;;5007305;28;20077;-65
2022/08/23 04:33:26;;;;;;;27.20;16.08;;;;;;;;;;5008812;28;20054;-65
2022/08/23 04:35:55;;;;;;;22.92;15.30;;;;;;;;;;5009234;28;20087;-65
2022/08/23 04:38:21;;;;;;;25.40;15.40;;;;;;;;;;5009886;28;20122;-64
2022/08/23 04:43:33;;;;;;;29.80;18.45;;;;;;;;;;5008765;28;20049;-64
2022/08/23 04:45:59;;;;;;;30.02;20.05;;;;;;;;;;5008529;28;20589;-65
2022/08/23 04:48:25;;;;;;;33.63;19.83;;;;;;;;;;5011002;28;20073;-64
2022/08/23 04:50:51;;;;;;;;;;;;;;;;;;5008521;28;20042;-67
2022/08/23 04:53:18;;;;;;;28.92;20.77;;;;;;;;;;5020818;28;20277;-64
2022/08/23 04:55:44;;;;;;;31.85;20.17;;;;;;;;;;5016035;28;20107;-64
2022/08/23 04:58:11;;;;;;;29.40;19.83;;;;;;;;;;5003053;28;20062;-64
2022/08/23 05:00:38;;;;;;;32.03;19.83;;;;;;;;;;4997059;28;20052;-64
2022/08/23 05:03:04;;;;;;;32.97;19.15;;;;;;;;;;5008074;28;20128;-65
2022/08/23 05:05:30;;;;;;;;;;;;;;;;;;5009074;28;20038;-65
2022/08/23 05:07:56;;;;;;;29.92;20.63;;;;;;;;;;5026397;28;20027;-64
2022/08/23 05:10:22;;;;;;;29.92;20.58;;;;;;;;;;5019675;28;20046;-64
2022/08/23 05:12:48;;;;;;;28.45;19.83;;;;;;;;;;4991789;28;20054;-64
2022/08/23 05:15:14;;;;;;;;;;;;;;;;;;4985749;28;20488;-64
2022/08/23 05:17:40;;;;;;;27.58;19.35;;;;;;;;;;5024347;28;20344;-64
2022/08/23 05:20:07;;;;;;;29.38;20.20;;;;;;;;;;5009203;28;20068;-64
2022/08/23 05:22:34;;;;;;;29.73;19.23;;;;;;;;;;5009318;28;20054;-64
2022/08/23 05:25:00;;;;;;;26.10;19.17;;;;;;;;;;5007549;28;20082;-64
2022/08/23 05:27:26;;;;;;;26.88;18.88;;;;;;;;;;5018192;28;20068;-64
2022/08/23 05:29:53;;;;;;;37.63;21.60;;;;;;;;;;5008022;28;20054;-64
2022/08/23 05:32:19;;;;;;;27.63;18.48;;;;;;;;;;5001639;28;20461;-64
2022/08/23 05:34:46;;;;;;;28.63;19.40;;;;;;;;;;5008185;28;20125;-63
2022/08/23 05:37:12;;;;;;;27.27;19.50;;;;;;;;;;5010123;28;20156;-64
2022/08/23 05:39:38;;;;;;;27.88;19.38;;;;;;;;;;5008618;28;20050;-63
2022/08/23 05:42:08;;;;;;;31.20;18.92;;;;;;;;;;5002588;28;20046;-63
2022/08/23 05:44:34;;;;;;;28.23;18.27;;;;;;;;;;5020627;28;20139;-63
2022/08/23 05:47:00;;;;;;;27.30;19.95;;;;;;;;;;5024817;28;20064;-66
2022/08/23 05:49:26;;;;;;;29.65;19.63;;;;;;;;;;5006918;28;20080;-64
2022/08/23 05:51:52;;;;;;;25.63;19.42;;;;;;;;;;5005925;28;20038;-63
2022/08/23 05:54:19;;;;;;;29.35;21.67;;;;;;;;;;5007304;28;20069;-63
2022/08/23 05:56:45;;;;;;;27.33;19.75;;;;;;;;;;5008108;28;20056;-62
2022/08/23 05:59:14;;;;;;;27.35;18.92;;;;;;;;;;5002965;28;20046;-63
2022/08/23 06:01:40;;;;;;;28.15;19.73;;;;;;;;;;5015008;28;20057;-62
2022/08/23 06:04:07;;;;;;;29.40;20.65;;;;;;;;;;4998898;28;20086;-62
2022/08/23 06:06:34;;;;;;;26.40;19.17;;;;;;;;;;5008194;28;20041;-62
2022/08/23 06:09:00;;;;;;;25.85;18.73;;;;;;;;;;5002285;28;20062;-63
2022/08/23 06:11:28;;;;;;;24.77;18.45;;;;;;;;;;5019255;28;20069;-63
2022/08/23 06:13:58;;;;;;;26.17;17.83;;;;;;;;;;5017780;28;20129;-63
2022/08/23 06:16:25;;;;;;;32.78;16.85;;;;;;;;;;4989639;28;20477;-63
2022/08/23 06:18:53;;;;;;;26.38;17.48;;;;;;;;;;4988607;28;20501;-63
2022/08/23 06:21:19;;;;;;;27.90;18.20;;;;;;;;;;5019065;28;20137;-64
2022/08/23 06:23:48;;;;;;;25.05;16.65;;;;;;;;;;5012151;28;20584;-64
2022/08/23 06:26:18;;;;;;;25.70;16.73;;;;;;;;;;5015540;28;20123;-63
2022/08/23 06:28:45;;;;;;;25.85;17.75;;;;;;;;;;5011419;28;20136;-63
2022/08/23 06:31:11;;;;;;;24.70;17.25;;;;;;;;;;5002291;28;20469;-66
2022/08/23 06:33:37;;;;;;;;;;;;;;;;;;5004321;28;20052;-64
2022/08/23 06:36:03;;;;;;;24.63;16.70;;;;;;;;;;5006010;28;20028;-66
2022/08/23 06:38:30;;;;;;;29.92;17.85;;;;;;;;;;4996430;28;20120;-66
2022/08/23 06:41:07;;;;;;;25.15;17.67;;;;;;;;;;5007553;28;20046;-67
2022/08/23 06:43:33;;;;;;;26.15;16.63;;;;;;;;;;5022412;28;20049;-66
2022/08/23 06:45:59;;;;;;;;;;;;;;;;;;5024431;28;20060;-68
2022/08/23 06:48:25;;;;;;;23.27;15.63;;;;;;;;;;5018291;28;20000;-66
2022/08/23 06:50:51;;;;;;;23.52;16.75;;;;;;;;;;5022587;28;20385;-66
2022/08/23 06:53:17;;;;;;;26.83;18.38;;;;;;;;;;5004731;28;20396;-66
2022/08/23 06:55:43;;;;;;;20.58;15.27;;;;;;;;;;5008152;28;20128;-66
2022/08/23 06:58:09;;;;;;;25.10;15.80;;;;;;;;;;4996923;28;20064;-69
2022/08/23 07:00:36;;;;;;;19.92;14.05;;;;;;;;;;5010061;28;20073;-67
2022/08/23 07:03:02;;;;;;;21.45;14.23;;;;;;;;;;5020288;28;20129;-66
2022/08/23 07:05:31;;;;;;;21.48;14.38;;;;;;;;;;5023336;28;20804;-67
2022/08/23 07:07:57;;;;;;;;;;;;;;;;;;5028212;28;20125;-66
2022/08/23 07:10:23;;;;;;;23.77;13.25;;;;;;;;;;5026615;28;20020;-67
2022/08/23 07:12:49;;;;;;;18.10;12.43;;;;;;;;;;5007857;28;20053;-66
2022/08/23 07:15:15;;;;;;;20.90;12.73;;;;;;;;;;5009945;28;20077;-67
2022/08/23 07:17:41;;;;;;;;;;;;;;;;;;5010810;28;20046;-67
2022/08/23 07:20:08;;;;;;;19.15;12.27;;;;;;;;;;5019664;28;19928;-66
2022/08/23 07:22:33;;;;;;;;;;;;;;;;;;5027748;28;20045;-67
2022/08/23 07:24:59;;;;;;;20.45;11.05;;;;;;;;;;5004492;28;19932;-69
2022/08/23 07:27:26;;;;;;;18.20;11.38;;;;;;;;;;5019771;28;20072;-66
2022/08/23 07:29:52;;;;;;;;;;;;;;;;;;5017867;28;20106;-67
2022/08/23 07:32:18;;;;;;;19.60;10.75;;;;;;;;;;5010085;28;19932;-67
2022/08/23 07:34:44;;;;;;;17.23;10.75;;;;;;;;;;5008472;28;20089;-66
2022/08/23 07:37:11;;;;;;;;;;;;;;;;;;5009979;28;20060;-71
2022/08/23 07:39:37;;;;;;;18.02;10.13;;;;;;;;;;5020754;28;20012;-66
2022/08/23 07:42:03;;;;;;;17.30;9.55;;;;;;;;;;5025121;28;20121;-65
2022/08/23 07:44:29;;;;;;;;;;;;;;;;;;5007483;28;20119;-67
2022/08/23 07:46:55;;;;;;;18.00;9.73;;;;;;;;;;5016880;28;20324;-67
2022/08/23 07:49:22;;;;;;;16.35;9.63;;;;;;;;;;4998744;28;20363;-66
2022/08/23 07:51:49;;;;;;;17.45;9.40;;;;;;;;;;5030311;28;20049;-66
2022/08/23 07:54:16;;;;;;;13.65;9.40;;;;;;;;;;5021009;28;20090;-67
2022/08/23 07:56:43;;;;;;;15.77;9.25;;;;;;;;;;5004684;28;20058;-66
2022/08/23 07:59:10;;;;;;;18.80;8.80;;;;;;;;;;4990287;28;20148;-67
2022/08/23 08:01:36;;;;;;;15.15;9.77;;;;;;;;;;4989526;28;20765;-67
2022/08/23 08:04:06;;;;;;;17.80;9.48;;;;;;;;;;5004158;28;20454;-67
2022/08/23 08:06:34;;;;;;;16.27;8.68;;;;;;;;;;5007021;28;20520;-68
2022/08/23 08:09:00;;;;;;;14.25;8.75;;;;;;;;;;5017034;28;20046;-70
2022/08/23 08:11:30;;;;;;;17.23;8.63;;;;;;;;;;5027674;28;20331;-68
2022/08/23 08:13:56;;;;;;;22.42;9.05;;;;;;;;;;5021123;28;20053;-66
2022/08/23 08:16:43;;;;;;;16.85;9.25;;;;;;;;;;5015084;28;20203;-66
2022/08/23 08:19:10;;;;;;;17.60;8.77;;;;;;;;;;5008097;28;20376;-65
2022/08/23 08:21:37;;;;;;;17.35;8.35;;;;;;;;;;4988519;28;20069;-66
2022/08/23 08:24:03;;;;;;;15.05;7.00;;;;;;;;;;5015133;28;20056;-66
2022/08/23 08:26:29;;;;;;;17.67;6.88;;;;;;;;;;5020296;28;20042;-66
2022/08/23 08:28:56;;;;;;;13.10;6.90;;;;;;;;;;5007879;28;20554;-65
2022/08/23 08:31:22;;;;;;;13.48;7.00;;;;;;;;;;5008453;28;20050;-67
2022/08/23 08:33:49;;;;;;;17.42;7.30;;;;;;;;;;5008807;28;20059;-67
2022/08/23 08:36:48;;;;;;;15.27;7.63;;;;;;;;;;5008823;28;20085;-65
2022/08/23 08:39:15;;;;;;;16.58;6.85;;;;;;;;;;4986647;28;20054;-67
2022/08/23 08:42:00;;;;;;;13.00;6.88;;;;;;;;;;5008865;28;20046;-67
2022/08/23 08:44:38;;;;;;;15.88;7.35;;;;;;;;;;5009340;28;20188;-66
2022/08/23 08:47:07;;;;;;;14.15;6.32;;;;;;;;;;5009212;28;20057;-68
2022/08/23 08:49:36;;;;;;;18.63;6.18;;;;;;;;;;5008344;28;20112;-66
2022/08/23 08:52:06;;;;;;;13.13;6.07;;;;;;;;;;4993247;28;20404;-66
2022/08/23 08:54:33;;;;;;;15.52;7.03;;;;;;;;;;4991888;28;20038;-66
2022/08/23 08:57:03;;;;;;;13.70;6.53;;;;;;;;;;5009297;28;20427;-66
2022/08/23 08:59:53;;;;;;;11.23;5.22;;;;;;;;;;5009139;28;20045;-66
2022/08/23 09:02:21;;;;;;;12.80;6.03;;;;;;;;;;5009304;28;20085;-65
2022/08/23 09:04:47;;;;;;;12.95;5.60;;;;;;;;;;5007713;28;20046;-67
2022/08/23 09:07:21;;;;;;;11.57;5.22;;;;;;;;;;5007102;28;20113;-67
2022/08/23 09:10:01;;;;;;;13.50;5.10;;;;;;;;;;5009326;28;20201;-66
2022/08/23 09:12:36;;;;;;;12.15;4.88;;;;;;;;;;5007433;28;20112;-67
2022/08/23 09:15:09;;;;;;;13.00;5.15;;;;;;;;;;5008491;28;20109;-68
2022/08/23 09:17:40;;;;;;;12.82;5.38;;;;;;;;;;5008663;28;20110;-67
2022/08/23 09:20:08;;;;;;;14.23;5.47;;;;;;;;;;5009214;28;20054;-65
2022/08/23 09:22:38;;;;;;;13.18;5.45;;;;;;;;;;5009096;28;20350;-67
2022/08/23 09:25:04;;;;;;;14.23;5.25;;;;;;;;;;5009130;28;20054;-66
2022/08/23 09:27:30;;;;;;;13.75;5.38;;;;;;;;;;5007738;28;20125;-65
2022/08/23 09:29:59;;;;;;;11.88;5.40;;;;;;;;;;5008271;28;20187;-66
2022/08/23 09:32:31;;;;;;;11.57;4.50;;;;;;;;;;5008816;28;20505;-66
2022/08/23 09:35:10;;;;;;;13.52;5.68;;;;;;;;;;5008600;28;20108;-66
2022/08/23 09:37:56;;;;;;;11.40;4.75;;;;;;;;;;4997981;28;20129;-66
2022/08/23 09:40:29;;;;;;;13.43;5.18;;;;;;;;;;4988733;28;20081;-66
2022/08/23 09:43:31;;;;;;;13.88;5.80;;;;;;;;;;4988752;28;20062;-67
2022/08/23 09:45:59;;;;;;;12.45;4.88;;;;;;;;;;4956407;28;20129;-67
2022/08/23 09:48:42;;;;;;;18.02;5.13;;;;;;;;;;5000484;28;20461;-67
2022/08/23 09:51:15;;;;;;;10.75;5.05;;;;;;;;;;5006800;28;20042;-66
2022/08/23 09:53:44;;;;;;;14.25;5.07;;;;;;;;;;5008197;28;20096;-66
2022/08/23 09:56:12;;;;;;;13.40;5.15;;;;;;;;;;5007528;28;20053;-66
2022/08/23 09:58:45;;;;;;;11.15;4.63;;;;;;;;;;5006950;28;20129;-68
2022/08/23 10:01:20;;;;;;;12.38;4.90;;;;;;;;;;5010425;28;20062;-66
2022/08/23 10:03:46;;;;;;;11.43;4.70;;;;;;;;;;5024466;28;20529;-67
2022/08/23 10:06:16;;;;;;;12.60;4.35;;;;;;;;;;5007913;28;20059;-68
2022/08/23 10:08:53;;;;;;;13.02;4.72;;;;;;;;;;4997641;28;20119;-68
2022/08/23 10:11:25;;;;;;;12.18;4.72;;;;;;;;;;5005457;28;20052;-68
2022/08/23 10:13:51;;;;;;;12.45;4.68;;;;;;;;;;5005673;28;20053;-67
2022/08/23 10:16:17;;;;;;;12.55;4.88;;;;;;;;;;4999385;28;20041;-66
2022/08/23 10:18:47;;;;;;;12.10;5.18;;;;;;;;;;5004806;28;20065;-67
2022/08/23 10:21:31;;;;;;;12.07;5.00;;;;;;;;;;5005714;28;20474;-67
2022/08/23 10:24:00;;;;;;;11.48;4.47;;;;;;;;;;5004816;28;20057;-67
2022/08/23 10:26:29;;;;;;;14.07;5.20;;;;;;;;;;5004672;28;20117;-67
2022/08/23 10:31:55;;;;;;;11.07;4.97;;;;;;;;;;5007741;28;20075;-67
2022/08/23 10:34:42;;;;;;;11.82;4.20;;;;;;;;;;5008172;28;20508;-67
2022/08/23 10:37:17;;;;;;;11.98;4.45;;;;;;;;;;5010269;28;20053;-68
2022/08/23 10:39:52;;;;;;;15.85;4.40;;;;;;;;;;4986072;28;20368;-69
2022/08/23 10:42:18;;;;;;;11.52;4.47;;;;;;;;;;5009924;28;20435;-67
2022/08/23 10:44:57;;;;;;;12.55;4.60;;;;;;;;;;5009739;28;20049;-68
2022/08/23 10:47:48;;;;;;;12.32;4.50;;;;;;;;;;5010002;28;20139;-68
2022/08/23 10:50:19;;;;;;;11.93;4.47;;;;;;;;;;5010417;28;20151;-68
2022/08/23 10:52:45;;;;;;;11.30;4.55;;;;;;;;;;5012006;28;20386;-67
2022/08/23 10:55:33;;;;;;;12.38;4.28;;;;;;;;;;5009957;28;20119;-71
2022/08/23 10:58:01;;;;;;;13.15;4.63;;;;;;;;;;5002627;28;20053;-68
2022/08/23 11:00:28;;;;;;;10.23;4.32;;;;;;;;;;5004990;28;20042;-66
2022/08/23 11:03:11;;;;;;;11.30;4.45;;;;;;;;;;5009536;28;20398;-66
2022/08/23 11:05:37;;;;;;;11.32;4.47;;;;;;;;;;5001377;28;20187;-66
2022/08/23 11:08:09;;;;;;;10.90;4.40;;;;;;;;;;4992109;28;20042;-67
2022/08/23 11:10:53;;;;;;;12.93;5.15;;;;;;;;;;4998001;28;20061;-67
2022/08/23 11:13:22;;;;;;;11.20;5.15;;;;;;;;;;5009718;28;20470;-66
2022/08/23 11:15:59;;;;;;;10.07;4.72;;;;;;;;;;5004468;28;20113;-67
2022/08/23 11:18:25;;;;;;;10.68;4.53;;;;;;;;;;5012926;28;20041;-69
2022/08/23 11:20:54;;;;;;;11.88;4.57;;;;;;;;;;5011469;28;20061;-68
2022/08/23 11:23:39;;;;;;;11.00;4.78;;;;;;;;;;5005262;28;20054;-68
2022/08/23 11:26:08;;;;;;;19.38;5.43;;;;;;;;;;5010937;28;20183;-67
2022/08/23 11:28:42;;;;;;;13.00;4.85;;;;;;;;;;5019053;28;20060;-67
2022/08/23 11:31:11;;;;;;;10.10;4.70;;;;;;;;;;5012139;28;20061;-68
2022/08/23 11:33:46;;;;;;;11.73;4.72;;;;;;;;;;5020663;28;20143;-67
2022/08/23 11:36:15;;;;;;;13.85;4.60;;;;;;;;;;5028210;28;20125;-67
2022/08/23 11:38:47;;;;;;;13.85;4.90;;;;;;;;;;5017909;28;20474;-68
2022/08/23 11:41:19;;;;;;;15.50;4.90;;;;;;;;;;5016994;28;20054;-68
2022/08/23 11:43:45;;;;;;;12.20;5.00;;;;;;;;;;5008938;28;20061;-70
2022/08/23 11:46:30;;;;;;;11.65;4.50;;;;;;;;;;5009350;28;20124;-67
2022/08/23 11:48:56;;;;;;;12.80;4.75;;;;;;;;;;5009514;28;20129;-67
2022/08/23 11:51:36;;;;;;;12.23;4.68;;;;;;;;;;5006719;28;20053;-67
2022/08/23 11:54:08;;;;;;;13.55;4.40;;;;;;;;;;5022747;28;20078;-66
2022/08/23 11:56:57;;;;;;;13.23;4.65;;;;;;;;;;5003996;28;20049;-64
2022/08/23 11:59:36;;;;;;;14.45;4.38;;;;;;;;;;5000660;28;20463;-66
2022/08/23 12:02:21;;;;;;;11.50;4.20;;;;;;;;;;5009663;28;20062;-67
2022/08/23 12:04:51;;;;;;;18.95;5.18;;;;;;;;;;5027606;28;20454;-68
2022/08/23 12:07:37;;;;;;;10.52;4.28;;;;;;;;;;5014181;28;20045;-68
2022/08/23 12:10:04;;;;;;;11.25;4.90;;;;;;;;;;5009283;28;20045;-69
2022/08/23 12:12:32;;;;;;;13.63;5.07;;;;;;;;;;5004265;28;20056;-68
2022/08/23 12:15:00;;;;;;;12.55;4.85;;;;;;;;;;5009262;28;20476;-68
2022/08/23 12:17:26;;;;;;;11.82;4.20;;;;;;;;;;5005474;28;20073;-67
2022/08/23 12:20:06;;;;;;;15.60;4.40;;;;;;;;;;5002424;28;20132;-71
2022/08/23 12:22:51;;;;;;;13.32;4.93;;;;;;;;;;5002970;28;20490;-67
2022/08/23 12:25:18;;;;;;;9.35;4.38;;;;;;;;;;4998696;28;20053;-67
2022/08/23 12:27:44;;;;;;;13.05;4.45;;;;;;;;;;5001663;28;20046;-67
2022/08/23 12:30:21;;;;;;;11.88;4.20;;;;;;;;;;5004248;28;20058;-69
2022/08/23 12:32:47;;;;;;;11.07;3.97;;;;;;;;;;5004466;28;20064;-67
2022/08/23 12:35:32;;;;;;;11.80;4.40;;;;;;;;;;5009191;28;20080;-68
2022/08/23 12:38:10;;;;;;;11.57;4.85;;;;;;;;;;5005594;28;20223;-68
2022/08/23 12:40:44;;;;;;;11.02;4.28;;;;;;;;;;4999508;28;20045;-66
2022/08/23 12:43:12;;;;;;;12.18;4.22;;;;;;;;;;5005052;28;20155;-68
2022/08/23 12:45:40;;;;;;;13.75;4.30;;;;;;;;;;5014956;28;20049;-68
2022/08/23 12:48:07;;;;;;;15.52;4.38;;;;;;;;;;5009250;28;20061;-67
2022/08/23 12:50:37;;;;;;;12.60;4.50;;;;;;;;;;5015824;28;20053;-69
2022/08/23 12:53:06;;;;;;;13.55;4.25;;;;;;;;;;5008163;28;20053;-68
2022/08/23 12:55:36;;;;;;;10.93;4.53;;;;;;;;;;5010899;28;20037;-68
2022/08/23 12:58:03;;;;;;;13.45;4.28;;;;;;;;;;5023035;28;20048;-68
2022/08/23 13:00:34;;;;;;;15.65;4.15;;;;;;;;;;5013512;28;20045;-68
2022/08/23 13:03:07;;;;;;;11.38;4.40;;;;;;;;;;5015591;28;20046;-69
2022/08/23 13:05:40;;;;;;;12.50;3.97;;;;;;;;;;5010891;28;20045;-68
2022/08/23 13:08:25;;;;;;;14.13;4.43;;;;;;;;;;5008638;28;20113;-67
2022/08/23 13:10:52;;;;;;;10.65;4.00;;;;;;;;;;5012842;28;20053;-67
2022/08/23 13:13:21;;;;;;;11.40;3.88;;;;;;;;;;5006897;28;20622;-67
2022/08/23 13:15:49;;;;;;;11.27;4.00;;;;;;;;;;5018264;28;20100;-68
2022/08/23 13:18:34;;;;;;;11.60;3.90;;;;;;;;;;5010639;28;20065;-69
2022/08/23 13:21:19;;;;;;;12.80;3.80;;;;;;;;;;5005622;28;20048;-71
2022/08/23 13:23:45;;;;;;;11.45;3.80;;;;;;;;;;5005949;28;20461;-68
2022/08/23 13:26:30;;;;;;;18.00;4.03;;;;;;;;;;5006838;28;20141;-67
2022/08/23 13:29:00;;;;;;;12.35;4.13;;;;;;;;;;5006376;28;20443;-67
2022/08/23 13:31:47;;;;;;;15.65;4.47;;;;;;;;;;5004498;28;20096;-68
2022/08/23 13:34:32;;;;;;;13.97;4.10;;;;;;;;;;5005835;28;20424;-67
2022/08/23 13:36:59;;;;;;;11.10;3.70;;;;;;;;;;5005205;28;20118;-68
2022/08/23 13:39:25;;;;;;;11.43;3.80;;;;;;;;;;5008696;28;20168;-67
2022/08/23 13:41:51;;;;;;;11.13;3.88;;;;;;;;;;5003445;28;20367;-67
2022/08/23 13:44:19;;;;;;;11.80;3.88;;;;;;;;;;5006862;28;20065;-68
2022/08/23 13:46:46;;;;;;;14.32;4.30;;;;;;;;;;5007516;28;20065;-69
2022/08/23 13:49:14;;;;;;;12.82;3.97;;;;;;;;;;5006333;28;20042;-67
2022/08/23 13:51:59;;;;;;;12.43;4.05;;;;;;;;;;5004842;28;20132;-67
2022/08/23 13:54:26;;;;;;;12.45;3.78;;;;;;;;;;5005801;28;20045;-67
2022/08/23 13:56:53;;;;;;;13.45;4.07;;;;;;;;;;5005935;28;20438;-68
2022/08/23 13:59:36;;;;;;;11.98;4.05;;;;;;;;;;4995083;28;20386;-67
2022/08/23 14:02:05;;;;;;;13.48;4.30;;;;;;;;;;5004183;28;20060;-68
2022/08/23 14:04:31;;;;;;;13.20;4.30;;;;;;;;;;4988884;28;20125;-69
2022/08/23 14:06:57;;;;;;;11.65;3.90;;;;;;;;;;5006145;28;20052;-69
2022/08/23 14:09:23;;;;;;;14.38;4.38;;;;;;;;;;5010268;28;20107;-68
2022/08/23 14:11:52;;;;;;;12.23;4.60;;;;;;;;;;5005057;28;20144;-69
2022/08/23 14:14:18;;;;;;;13.75;4.65;;;;;;;;;;5006551;28;20049;-68
2022/08/23 14:16:44;;;;;;;10.77;4.35;;;;;;;;;;5003574;28;20136;-67
2022/08/23 14:19:11;;;;;;;11.73;4.13;;;;;;;;;;5000640;28;20112;-71
2022/08/23 14:21:37;;;;;;;13.23;4.57;;;;;;;;;;5008738;28;20069;-70
2022/08/23 14:24:03;;;;;;;14.10;4.53;;;;;;;;;;5001838;28;20054;-70
2022/08/23 14:26:29;;;;;;;12.52;4.47;;;;;;;;;;5026779;28;20136;-71
2022/08/23 14:28:56;;;;;;;13.88;4.53;;;;;;;;;;5027593;28;20386;-71
2022/08/23 14:31:22;;;;;;;15.40;4.75;;;;;;;;;;5010288;28;20440;-71
2022/08/23 14:33:51;;;;;;;13.18;4.28;;;;;;;;;;5008589;28;20159;-71
2022/08/23 14:36:18;;;;;;;10.77;4.32;;;;;;;;;;5006571;28;20098;-72
2022/08/23 14:38:50;;;;;;;12.07;4.63;;;;;;;;;;5008430;28;20103;-71
2022/08/23 14:41:18;;;;;;;12.90;4.50;;;;;;;;;;5007014;28;20117;-70
2022/08/23 14:43:44;;;;;;;11.82;4.55;;;;;;;;;;5008466;28;20130;-70
2022/08/23 14:46:10;;;;;;;13.48;4.22;;;;;;;;;;5007813;28;20049;-71
2022/08/23 14:48:36;;;;;;;16.08;4.35;;;;;;;;;;5008429;28;20061;-69
2022/08/23 14:51:03;;;;;;;11.82;4.30;;;;;;;;;;5007195;28;20435;-70
2022/08/23 14:53:30;;;;;;;11.93;4.57;;;;;;;;;;5005353;28;20205;-71
2022/08/23 14:55:57;;;;;;;14.23;4.75;;;;;;;;;;5008338;28;20054;-71
2022/08/23 14:58:23;;;;;;;13.93;4.78;;;;;;;;;;5007676;28;20149;-71
2022/08/23 15:00:51;;;;;;;12.45;4.97;;;;;;;;;;5007509;28;20045;-71